Time;durP1;ratioP1;P1;durP2;ratioP2;P2;SDS_P1;SDS_P2;PMS_P1;PMS_P2;Temp;Humidity;BMP_temperature;BMP_pressure;BME280_temperature;BME280_humidity;BME280_pressure;Samples;Min_cycle;Max_cycle;Signal;HPM_P1;HPM_P2
2022/10/23 00:00:29;;;;;;;0.30;0.30;;;12.20;99.90;;;;;;5094104;28;20468;-71
2022/10/23 00:02:55;;;;;;;0.30;0.30;;;12.10;99.90;;;;;;5094476;28;20626;-71
2022/10/23 00:05:21;;;;;;;0.40;0.40;;;12.10;99.90;;;;;;5094183;28;20411;-69
2022/10/23 00:07:52;;;;;;;0.90;0.50;;;12.40;99.90;;;;;;5094067;28;20199;-72
2022/10/23 00:10:19;;;;;;;0.40;0.40;;;12.20;99.90;;;;;;5093780;28;20707;-71
2022/10/23 00:12:45;;;;;;;0.50;0.50;;;12.20;99.90;;;;;;5093927;28;20399;-69
2022/10/23 00:15:11;;;;;;;1.05;0.85;;;12.20;99.90;;;;;;5093984;28;20494;-70
2022/10/23 00:17:37;;;;;;;0.40;0.40;;;12.20;99.90;;;;;;5093837;28;20251;-68
2022/10/23 00:20:06;;;;;;;0.30;0.30;;;12.10;99.90;;;;;;5093722;28;20515;-68
2022/10/23 00:22:32;;;;;;;0.60;0.60;;;12.20;99.90;;;;;;5093881;28;20172;-70
2022/10/23 00:24:58;;;;;;;0.50;0.50;;;12.20;99.90;;;;;;5093261;28;20199;-70
2022/10/23 00:27:24;;;;;;;0.30;0.30;;;12.20;99.90;;;;;;5093556;28;20537;-72
2022/10/23 00:29:49;;;;;;;0.30;0.30;;;12.30;99.90;;;;;;5093595;28;20189;-71
2022/10/23 00:32:15;;;;;;;0.30;0.30;;;12.40;99.90;;;;;;5093787;28;20735;-69
2022/10/23 00:34:40;;;;;;;0.30;0.30;;;12.40;99.90;;;;;;5093394;28;20172;-70
2022/10/23 00:37:06;;;;;;;0.47;0.47;;;12.40;99.90;;;;;;5093817;28;20172;-69
2022/10/23 00:39:32;;;;;;;0.67;0.67;;;12.40;99.90;;;;;;5093407;28;20193;-71
2022/10/23 00:41:58;;;;;;;0.40;0.40;;;12.30;99.90;;;;;;5093552;28;20214;-70
2022/10/23 00:44:23;;;;;;;1.10;0.40;;;12.30;99.90;;;;;;5093604;28;20192;-71
2022/10/23 00:46:49;;;;;;;0.30;0.30;;;12.40;99.90;;;;;;5093535;28;20407;-68
2022/10/23 00:49:15;;;;;;;0.40;0.40;;;12.40;99.90;;;;;;5093385;28;20268;-69
2022/10/23 00:51:47;;;;;;;0.93;0.60;;;12.40;99.90;;;;;;5093760;28;20176;-70
2022/10/23 00:54:15;;;;;;;0.30;0.30;;;12.40;99.90;;;;;;5093757;28;20403;-70
2022/10/23 00:56:43;;;;;;;0.30;0.30;;;12.50;99.90;;;;;;5093513;28;20165;-71
2022/10/23 00:59:10;;;;;;;0.30;0.30;;;12.40;99.90;;;;;;5093295;28;20967;-69
2022/10/23 01:01:36;;;;;;;0.40;0.40;;;12.40;99.90;;;;;;5093536;28;20523;-70
2022/10/23 01:04:03;;;;;;;0.30;0.30;;;12.50;99.90;;;;;;5093569;28;20170;-68
2022/10/23 01:06:58;;;;;;;0.40;0.40;;;12.50;99.90;;;;;;5093534;28;20641;-71
2022/10/23 01:09:33;;;;;;;0.90;0.90;;;12.60;99.90;;;;;;5071355;28;20450;-70
2022/10/23 01:12:37;;;;;;;0.53;0.53;;;12.60;99.90;;;;;;5093427;28;20390;-70
2022/10/23 01:15:14;;;;;;;0.30;0.30;;;12.70;99.90;;;;;;5093791;28;20416;-70
2022/10/23 01:18:15;;;;;;;0.30;0.30;;;12.70;99.90;;;;;;5093228;28;20395;-70
2022/10/23 01:20:45;;;;;;;0.30;0.30;;;12.70;99.90;;;;;;5093229;28;20399;-69
2022/10/23 01:23:28;;;;;;;0.30;0.30;;;12.80;99.90;;;;;;5093199;28;20414;-70
2022/10/23 01:26:08;;;;;;;0.50;0.50;;;12.70;99.90;;;;;;5093020;28;20465;-68
2022/10/23 01:28:46;;;;;;;0.30;0.30;;;12.70;99.90;;;;;;5093025;28;20471;-71
2022/10/23 01:31:17;;;;;;;0.30;0.30;;;12.70;99.90;;;;;;5093417;28;20402;-69
2022/10/23 01:33:57;;;;;;;0.30;0.30;;;12.70;99.90;;;;;;5093820;28;20403;-70
2022/10/23 01:36:26;;;;;;;0.30;0.30;;;12.60;99.90;;;;;;5093322;28;20395;-71
2022/10/23 01:38:56;;;;;;;0.40;0.40;;;12.60;99.90;;;;;;5092913;28;20427;-69
2022/10/23 01:41:25;;;;;;;0.30;0.30;;;12.60;99.90;;;;;;5093003;28;20407;-70
2022/10/23 01:43:53;;;;;;;0.30;0.30;;;12.60;99.90;;;;;;5093167;28;20399;-71
2022/10/23 01:46:20;;;;;;;0.40;0.40;;;12.50;99.90;;;;;;5093323;28;20401;-70
2022/10/23 01:48:50;;;;;;;0.30;0.30;;;12.40;99.90;;;;;;5095275;28;20467;-68
2022/10/23 01:51:17;;;;;;;0.30;0.30;;;12.50;99.90;;;;;;5096756;28;20393;-70
2022/10/23 01:53:45;;;;;;;0.30;0.30;;;12.50;99.90;;;;;;5096731;28;20413;-71
2022/10/23 01:56:14;;;;;;;0.30;0.30;;;12.60;99.90;;;;;;5096708;28;20834;-71
2022/10/23 01:58:45;;;;;;;0.30;0.30;;;12.60;99.90;;;;;;5096540;28;20436;-69
2022/10/23 02:01:13;;;;;;;0.53;0.53;;;12.60;99.90;;;;;;5096931;28;20401;-70
2022/10/23 02:03:41;;;;;;;0.30;0.30;;;12.60;99.90;;;;;;5096530;28;20460;-72
2022/10/23 02:06:07;;;;;;;0.30;0.30;;;12.60;99.90;;;;;;5096488;28;20410;-70
2022/10/23 02:08:32;;;;;;;0.73;0.73;;;12.60;99.90;;;;;;5096388;28;20451;-69
2022/10/23 02:11:02;;;;;;;0.40;0.40;;;12.60;99.90;;;;;;5096057;28;20209;-71
2022/10/23 02:13:36;;;;;;;0.40;0.40;;;12.60;99.90;;;;;;5096223;28;20391;-71
2022/10/23 02:16:10;;;;;;;0.30;0.30;;;12.50;99.90;;;;;;5096617;28;20415;-71
2022/10/23 02:18:44;;;;;;;0.40;0.40;;;12.50;99.90;;;;;;5096275;28;20426;-70
2022/10/23 02:21:17;;;;;;;1.40;1.03;;;12.40;99.90;;;;;;5096120;28;20414;-69
2022/10/23 02:24:04;;;;;;;0.40;0.40;;;12.40;99.90;;;;;;5096182;28;20406;-70
2022/10/23 02:26:33;;;;;;;0.30;0.30;;;12.40;99.90;;;;;;5096046;28;20994;-69
2022/10/23 02:29:27;;;;;;;0.30;0.30;;;12.30;99.90;;;;;;5095722;28;20457;-69
2022/10/23 02:31:53;;;;;;;0.30;0.30;;;12.20;99.90;;;;;;5093069;28;20416;-71
2022/10/23 02:34:19;;;;;;;0.40;0.40;;;12.20;99.90;;;;;;5095814;28;20756;-71
2022/10/23 02:36:45;;;;;;;0.30;0.30;;;12.10;99.90;;;;;;5095838;28;20175;-68
2022/10/23 02:39:10;;;;;;;0.40;0.40;;;12.10;99.90;;;;;;5095500;28;20201;-71
2022/10/23 02:41:42;;;;;;;0.30;0.30;;;12.00;99.90;;;;;;5095782;28;20402;-68
2022/10/23 02:44:28;;;;;;;0.30;0.30;;;12.00;99.90;;;;;;5095838;28;20165;-69
2022/10/23 02:47:13;;;;;;;0.30;0.30;;;12.00;99.90;;;;;;5095764;28;20403;-71
2022/10/23 02:49:50;;;;;;;0.30;0.30;;;12.00;99.90;;;;;;5095288;28;20426;-69
2022/10/23 02:52:26;;;;;;;0.30;0.30;;;12.00;99.90;;;;;;5095649;28;20448;-71
2022/10/23 02:55:03;;;;;;;0.30;0.30;;;11.90;99.90;;;;;;5095638;28;20773;-69
2022/10/23 02:57:53;;;;;;;0.30;0.30;;;11.90;99.90;;;;;;5095312;28;20402;-71
2022/10/23 03:00:21;;;;;;;0.30;0.30;;;11.90;99.90;;;;;;5095343;28;20401;-69
2022/10/23 03:02:56;;;;;;;0.30;0.30;;;11.90;99.90;;;;;;5095456;28;20403;-71
2022/10/23 03:05:30;;;;;;;0.30;0.30;;;11.90;99.90;;;;;;5095456;28;20769;-71
2022/10/23 03:07:56;;;;;;;0.30;0.30;;;11.70;99.90;;;;;;5095272;28;20809;-69
2022/10/23 03:10:21;;;;;;;0.55;0.55;;;11.70;99.90;;;;;;5095051;28;20391;-68
2022/10/23 03:12:47;;;;;;;0.30;0.30;;;11.80;99.90;;;;;;5095214;28;20180;-71
2022/10/23 03:15:14;;;;;;;0.40;0.40;;;11.70;99.90;;;;;;5094978;28;20173;-70
2022/10/23 03:17:39;;;;;;;0.30;0.30;;;11.80;99.90;;;;;;5095052;28;20435;-70
2022/10/23 03:20:06;;;;;;;0.30;0.30;;;11.60;99.90;;;;;;5094793;28;20399;-69
2022/10/23 03:22:32;;;;;;;0.30;0.30;;;11.60;99.90;;;;;;5094938;28;20176;-71
2022/10/23 03:24:58;;;;;;;0.33;0.33;;;11.60;99.90;;;;;;5095030;28;20399;-68
2022/10/23 03:27:23;;;;;;;0.40;0.40;;;11.60;99.90;;;;;;5094728;28;20454;-68
2022/10/23 03:29:50;;;;;;;0.60;0.60;;;11.60;99.90;;;;;;5094516;28;20256;-68
2022/10/23 03:32:15;;;;;;;1.03;1.03;;;11.60;99.90;;;;;;5094821;28;20161;-70
2022/10/23 03:34:41;;;;;;;0.40;0.40;;;11.60;99.90;;;;;;5094547;28;20896;-71
2022/10/23 03:37:07;;;;;;;0.30;0.30;;;11.50;99.90;;;;;;5094585;28;20287;-69
2022/10/23 03:39:33;;;;;;;0.30;0.30;;;11.40;99.90;;;;;;5094325;28;20423;-67
2022/10/23 03:41:58;;;;;;;0.57;0.57;;;11.40;99.90;;;;;;5094593;28;20164;-69
2022/10/23 03:44:24;;;;;;;0.40;0.40;;;11.30;99.90;;;;;;5094600;28;20180;-70
2022/10/23 03:46:50;;;;;;;0.40;0.40;;;11.30;99.90;;;;;;5094629;28;20169;-68
2022/10/23 03:49:15;;;;;;;0.30;0.30;;;11.20;99.90;;;;;;5094309;28;20204;-68
2022/10/23 03:51:42;;;;;;;0.30;0.30;;;11.20;99.90;;;;;;5094413;28;20280;-70
2022/10/23 03:54:08;;;;;;;0.30;0.30;;;11.10;99.90;;;;;;5094552;28;20172;-70
2022/10/23 03:56:34;;;;;;;0.30;0.30;;;11.20;99.90;;;;;;5094640;28;20173;-70
2022/10/23 03:58:59;;;;;;;0.30;0.30;;;11.20;99.90;;;;;;5094154;28;20278;-68
2022/10/23 04:01:26;;;;;;;1.23;0.60;;;11.00;99.90;;;;;;5094318;28;20214;-70
2022/10/23 04:03:51;;;;;;;0.30;0.30;;;10.90;99.90;;;;;;5094178;28;20622;-69
2022/10/23 04:06:17;;;;;;;0.40;0.40;;;10.90;99.90;;;;;;5094136;28;20260;-69
2022/10/23 04:08:43;;;;;;;0.30;0.30;;;11.00;99.90;;;;;;5093721;28;20350;-68
2022/10/23 04:11:09;;;;;;;0.30;0.30;;;11.00;99.90;;;;;;5093693;28;20165;-69
2022/10/23 04:13:35;;;;;;;0.40;0.40;;;10.90;99.90;;;;;;5094151;28;20176;-69
2022/10/23 04:16:01;;;;;;;0.30;0.30;;;10.80;99.90;;;;;;5093927;28;20407;-71
2022/10/23 04:18:26;;;;;;;0.40;0.40;;;10.90;99.90;;;;;;5094085;28;20196;-70
2022/10/23 04:20:52;;;;;;;0.30;0.30;;;10.90;99.90;;;;;;5093790;28;20403;-70
2022/10/23 04:23:19;;;;;;;0.30;0.30;;;11.00;99.90;;;;;;5093942;28;20239;-70
2022/10/23 04:25:45;;;;;;;0.30;0.30;;;10.80;99.90;;;;;;5093841;28;20272;-71
2022/10/23 04:28:10;;;;;;;0.30;0.30;;;10.90;99.90;;;;;;5093817;28;20200;-71
2022/10/23 04:30:36;;;;;;;0.30;0.30;;;11.00;99.90;;;;;;5092476;28;20253;-69
2022/10/23 04:33:02;;;;;;;0.30;0.30;;;11.00;99.90;;;;;;5093801;28;20582;-70
2022/10/23 04:35:27;;;;;;;0.30;0.30;;;11.10;99.90;;;;;;5093895;28;20651;-69
2022/10/23 04:37:53;;;;;;;0.30;0.30;;;11.30;99.90;;;;;;5093602;28;20264;-68
2022/10/23 04:40:19;;;;;;;0.30;0.30;;;11.20;99.90;;;;;;5093627;28;20173;-68
2022/10/23 04:42:44;;;;;;;0.40;0.40;;;11.10;99.90;;;;;;5093568;28;20180;-71
2022/10/23 04:45:10;;;;;;;0.30;0.30;;;11.00;99.90;;;;;;5093740;28;20173;-71
2022/10/23 04:47:36;;;;;;;0.30;0.30;;;11.00;99.90;;;;;;5093484;28;20204;-70
2022/10/23 04:50:02;;;;;;;0.30;0.30;;;11.00;99.90;;;;;;5093341;28;20189;-68
2022/10/23 04:52:27;;;;;;;0.30;0.30;;;11.00;99.90;;;;;;5093622;28;20176;-69
2022/10/23 04:54:53;;;;;;;0.60;0.60;;;11.00;99.90;;;;;;5093716;28;20395;-71
2022/10/23 04:57:18;;;;;;;0.30;0.30;;;11.10;99.90;;;;;;5093714;28;20569;-68
2022/10/23 04:59:44;;;;;;;0.30;0.30;;;11.10;99.90;;;;;;5093283;28;20560;-71
2022/10/23 05:02:10;;;;;;;0.30;0.30;;;11.00;99.90;;;;;;5093679;28;20652;-70
2022/10/23 05:04:35;;;;;;;0.30;0.30;;;10.70;99.90;;;;;;5093536;28;20559;-68
2022/10/23 05:07:01;;;;;;;0.40;0.40;;;10.90;99.90;;;;;;5093381;28;20207;-68
2022/10/23 05:09:26;;;;;;;0.30;0.30;;;11.00;99.90;;;;;;5093118;28;20722;-70
2022/10/23 05:11:52;;;;;;;0.30;0.30;;;11.00;99.90;;;;;;5093506;28;20248;-70
2022/10/23 05:14:18;;;;;;;0.30;0.30;;;11.00;99.90;;;;;;5093467;28;20676;-67
2022/10/23 05:16:53;;;;;;;0.30;0.30;;;11.00;99.90;;;;;;5093199;28;20247;-70
2022/10/23 05:19:28;;;;;;;0.30;0.30;;;11.10;99.90;;;;;;5093074;28;20283;-70
2022/10/23 05:21:55;;;;;;;0.30;0.30;;;11.10;99.90;;;;;;5096500;28;20181;-69
2022/10/23 05:24:24;;;;;;;0.30;0.30;;;11.00;99.90;;;;;;5097183;28;20196;-69
2022/10/23 05:26:51;;;;;;;0.30;0.30;;;11.10;99.90;;;;;;5097028;28;20196;-68
2022/10/23 05:29:18;;;;;;;0.40;0.40;;;10.90;99.90;;;;;;5096774;28;20254;-70
2022/10/23 05:31:45;;;;;;;0.30;0.30;;;11.10;99.90;;;;;;5097483;28;20168;-71
2022/10/23 05:34:13;;;;;;;0.40;0.40;;;11.00;99.90;;;;;;5097249;28;20175;-70
2022/10/23 05:36:39;;;;;;;0.30;0.30;;;11.00;99.90;;;;;;5097168;28;20170;-69
2022/10/23 05:39:04;;;;;;;0.30;0.30;;;11.00;99.90;;;;;;5096674;28;20233;-68
2022/10/23 05:41:30;;;;;;;0.30;0.30;;;11.00;99.90;;;;;;5097067;28;20244;-69
2022/10/23 05:43:56;;;;;;;0.30;0.30;;;11.00;99.90;;;;;;5096875;28;20169;-69
2022/10/23 05:46:22;;;;;;;1.03;0.50;;;11.00;99.90;;;;;;5096991;28;20394;-69
2022/10/23 05:48:51;;;;;;;0.30;0.30;;;11.00;99.90;;;;;;5096384;28;20567;-68
2022/10/23 05:51:21;;;;;;;0.30;0.30;;;11.00;99.90;;;;;;5096807;28;20214;-69
2022/10/23 05:53:53;;;;;;;0.30;0.30;;;10.90;99.90;;;;;;5096637;28;20169;-71
2022/10/23 05:56:19;;;;;;;0.30;0.30;;;10.90;99.90;;;;;;5096521;28;20165;-70
2022/10/23 05:58:45;;;;;;;0.30;0.30;;;10.90;99.90;;;;;;5096465;28;20614;-70
2022/10/23 06:01:12;;;;;;;0.30;0.30;;;10.90;99.90;;;;;;5096416;28;20218;-70
2022/10/23 06:03:39;;;;;;;0.30;0.30;;;10.90;99.90;;;;;;5096640;28;20196;-69
2022/10/23 06:06:05;;;;;;;0.30;0.30;;;11.00;99.90;;;;;;5096539;28;20246;-68
2022/10/23 06:08:32;;;;;;;0.30;0.30;;;11.00;99.90;;;;;;5096948;28;20253;-71
2022/10/23 06:11:04;;;;;;;0.30;0.30;;;11.00;99.90;;;;;;5096174;28;20200;-70
2022/10/23 06:13:30;;;;;;;0.30;0.30;;;11.10;99.90;;;;;;5096687;28;20190;-68
2022/10/23 06:15:55;;;;;;;0.30;0.30;;;11.10;99.90;;;;;;5096325;28;20168;-69
2022/10/23 06:18:21;;;;;;;0.30;0.30;;;11.10;99.90;;;;;;5096185;28;20185;-68
2022/10/23 06:20:47;;;;;;;0.30;0.30;;;11.10;99.90;;;;;;5096117;28;20169;-68
2022/10/23 06:23:12;;;;;;;0.30;0.30;;;11.20;99.90;;;;;;5094890;28;20173;-69
2022/10/23 06:25:38;;;;;;;0.30;0.30;;;11.20;99.90;;;;;;5095875;28;20181;-68
2022/10/23 06:28:04;;;;;;;0.30;0.30;;;11.20;99.90;;;;;;5096196;28;20655;-69
2022/10/23 06:30:29;;;;;;;0.40;0.40;;;11.30;99.90;;;;;;5095892;28;20200;-68
2022/10/23 06:32:55;;;;;;;0.30;0.30;;;11.40;99.90;;;;;;5095291;28;20592;-69
2022/10/23 06:35:20;;;;;;;0.30;0.30;;;11.50;99.90;;;;;;5095974;28;20206;-69
2022/10/23 06:37:46;;;;;;;0.30;0.30;;;;;;;;;;5095903;28;20660;-69
2022/10/23 06:40:12;;;;;;;0.30;0.30;;;11.60;99.90;;;;;;5095648;28;20517;-69
2022/10/23 06:42:38;;;;;;;0.30;0.30;;;11.60;99.90;;;;;;5095943;28;20407;-71
2022/10/23 06:45:04;;;;;;;0.30;0.30;;;11.70;99.90;;;;;;5095985;28;20252;-68
2022/10/23 06:47:29;;;;;;;0.40;0.40;;;11.70;99.90;;;;;;5095619;28;20196;-71
2022/10/23 06:49:55;;;;;;;0.30;0.30;;;11.80;99.90;;;;;;5094055;28;20442;-70
2022/10/23 06:52:20;;;;;;;0.30;0.30;;;11.90;99.90;;;;;;5095683;28;20165;-69
2022/10/23 06:54:46;;;;;;;0.40;0.40;;;11.90;99.90;;;;;;5095684;28;20196;-68
2022/10/23 06:57:12;;;;;;;0.30;0.30;;;11.90;99.90;;;;;;5095644;28;20200;-67
2022/10/23 06:59:37;;;;;;;0.30;0.30;;;11.90;99.90;;;;;;5095166;28;20235;-70
2022/10/23 07:02:03;;;;;;;0.40;0.40;;;11.90;99.90;;;;;;5095452;28;20526;-68
2022/10/23 07:04:29;;;;;;;0.67;0.63;;;12.00;99.90;;;;;;5095691;28;20173;-68
2022/10/23 07:06:56;;;;;;;0.40;0.40;;;12.10;99.90;;;;;;5095350;28;20256;-68
2022/10/23 07:09:21;;;;;;;0.50;0.50;;;12.30;99.90;;;;;;5094987;28;20212;-68
2022/10/23 07:11:47;;;;;;;0.43;0.43;;;12.50;99.90;;;;;;5095339;28;20497;-71
2022/10/23 07:14:13;;;;;;;0.40;0.30;;;12.70;99.90;;;;;;5095174;28;20402;-68
2022/10/23 07:16:39;;;;;;;0.40;0.40;;;13.10;99.90;;;;;;5095147;28;20172;-70
2022/10/23 07:19:05;;;;;;;0.40;0.40;;;13.50;99.90;;;;;;5094755;28;20256;-70
2022/10/23 07:21:36;;;;;;;1.13;0.93;;;13.60;99.90;;;;;;5095032;28;20573;-68
2022/10/23 07:24:02;;;;;;;3.37;0.93;;;13.70;99.90;;;;;;5093593;28;20418;-71
2022/10/23 07:26:28;;;;;;;1.60;1.10;;;13.80;99.90;;;;;;5094624;28;20777;-70
2022/10/23 07:28:54;;;;;;;0.70;0.70;;;14.40;99.90;;;;;;5094586;28;20462;-71
2022/10/23 07:31:24;;;;;;;0.70;0.70;;;14.90;99.90;;;;;;5094858;28;20177;-69
2022/10/23 07:33:50;;;;;;;0.40;0.40;;;15.40;99.90;;;;;;5094896;28;20164;-69
2022/10/23 07:36:20;;;;;;;0.40;0.40;;;16.40;99.90;;;;;;5094844;28;20431;-70
2022/10/23 07:38:46;;;;;;;0.67;0.67;;;17.80;99.90;;;;;;5094272;28;20927;-70
2022/10/23 07:41:12;;;;;;;0.50;0.47;;;19.20;99.90;;;;;;5094638;28;20418;-69
2022/10/23 07:43:37;;;;;;;0.60;0.53;;;20.20;99.90;;;;;;5094088;28;20185;-68
2022/10/23 07:46:03;;;;;;;1.03;0.93;;;21.00;99.90;;;;;;5094191;28;20181;-71
2022/10/23 07:48:29;;;;;;;0.83;0.83;;;21.70;99.90;;;;;;5094445;28;20211;-72
2022/10/23 07:51:07;;;;;;;0.63;0.60;;;22.10;98.70;;;;;;5094177;28;20373;-71
2022/10/23 07:53:34;;;;;;;0.50;0.50;;;22.00;92.00;;;;;;5094587;28;20772;-70
2022/10/23 07:56:02;;;;;;;0.93;0.80;;;21.60;91.70;;;;;;5094382;28;20406;-70
2022/10/23 07:58:29;;;;;;;0.67;0.67;;;21.60;93.40;;;;;;5094241;28;20549;-72
2022/10/23 08:00:58;;;;;;;1.33;1.33;;;22.20;92.20;;;;;;5094184;28;20455;-70
2022/10/23 08:03:28;;;;;;;0.80;0.80;;;23.20;90.90;;;;;;5094071;28;20414;-70
2022/10/23 08:05:55;;;;;;;0.50;0.50;;;24.20;85.10;;;;;;5094300;28;20859;-71
2022/10/23 08:08:21;;;;;;;2.50;0.53;;;25.00;81.00;;;;;;5094177;28;20450;-71
2022/10/23 08:10:48;;;;;;;0.40;0.40;;;25.70;79.10;;;;;;5094036;28;20403;-69
2022/10/23 08:13:14;;;;;;;0.50;0.50;;;26.00;76.20;;;;;;5094222;28;20422;-72
2022/10/23 08:15:41;;;;;;;0.30;0.30;;;26.50;75.40;;;;;;5094081;28;20402;-73
2022/10/23 08:18:07;;;;;;;0.37;0.37;;;27.30;70.60;;;;;;5093887;28;20434;-70
2022/10/23 08:20:41;;;;;;;0.50;0.50;;;27.90;67.50;;;;;;5093873;28;20441;-72
2022/10/23 08:23:06;;;;;;;0.40;0.40;;;28.60;65.70;;;;;;5094287;28;20442;-73
2022/10/23 08:25:32;;;;;;;0.40;0.40;;;29.10;61.10;;;;;;5093837;28;20860;-70
2022/10/23 08:27:58;;;;;;;0.40;0.40;;;29.70;69.50;;;;;;5093933;28;20291;-73
2022/10/23 08:30:24;;;;;;;0.40;0.40;;;29.90;57.00;;;;;;5093733;28;20414;-72
2022/10/23 08:32:49;;;;;;;0.87;0.40;;;30.30;55.70;;;;;;5093754;28;20165;-70
2022/10/23 08:35:15;;;;;;;0.70;0.70;;;30.70;66.20;;;;;;5093878;28;20508;-73
2022/10/23 08:37:41;;;;;;;0.40;0.40;;;30.90;54.20;;;;;;5093771;28;20546;-72
2022/10/23 08:40:12;;;;;;;0.60;0.57;;;30.80;53.70;;;;;;5093574;28;20259;-71
2022/10/23 08:42:39;;;;;;;0.30;0.30;;;30.70;52.20;;;;;;5093840;28;20173;-72
2022/10/23 08:45:19;;;;;;;0.43;0.40;;;30.40;51.70;;;;;;5094493;28;20767;-71
2022/10/23 08:47:49;;;;;;;0.40;0.40;;;30.10;51.80;;;;;;5093628;28;20482;-72
2022/10/23 08:50:42;;;;;;;0.30;0.30;;;29.70;51.60;;;;;;5093732;28;20775;-72
2022/10/23 08:53:35;;;;;;;0.40;0.40;;;29.10;52.20;;;;;;5089886;28;20419;-69
2022/10/23 08:56:03;;;;;;;0.40;0.30;;;28.40;53.10;;;;;;5050928;28;20419;-72
2022/10/23 08:58:48;;;;;;;0.30;0.30;;;28.00;54.10;;;;;;5097668;28;20422;-73
2022/10/23 09:01:46;;;;;;;0.40;0.30;;;27.50;53.80;;;;;;5097886;28;20395;-69
2022/10/23 09:04:14;;;;;;;0.40;0.40;;;26.90;55.70;;;;;;5088489;28;20419;-70
2022/10/23 09:06:39;;;;;;;0.30;0.30;;;26.50;59.00;;;;;;5097591;28;20495;-69
2022/10/23 09:09:38;;;;;;;0.40;0.40;;;26.10;60.40;;;;;;5097117;28;20541;-69
2022/10/23 09:12:12;;;;;;;0.60;0.60;;;25.60;61.50;;;;;;5097897;28;20181;-70
2022/10/23 09:14:53;;;;;;;0.40;0.40;;;25.30;62.60;;;;;;5097705;28;20539;-68
2022/10/23 09:17:39;;;;;;;0.87;0.37;;;25.00;64.50;;;;;;5097462;28;20907;-70
2022/10/23 09:20:19;;;;;;;0.30;0.30;;;24.80;66.00;;;;;;5097060;28;20427;-70
2022/10/23 09:22:46;;;;;;;0.67;0.50;;;24.60;66.60;;;;;;5097293;28;20399;-70
2022/10/23 09:25:27;;;;;;;0.50;0.50;;;24.50;67.40;;;;;;5097219;28;20490;-67
2022/10/23 09:27:56;;;;;;;0.30;0.30;;;24.40;87.70;;;;;;5097236;28;20458;-70
2022/10/23 09:30:30;;;;;;;0.30;0.30;;;24.30;82.80;;;;;;5096960;28;20377;-69
2022/10/23 09:32:56;;;;;;;0.50;0.50;;;24.30;70.90;;;;;;5097059;28;20405;-66
2022/10/23 09:35:25;;;;;;;0.53;0.53;;;24.30;71.40;;;;;;5097151;28;20418;-72
2022/10/23 09:37:53;;;;;;;0.50;0.50;;;24.10;89.80;;;;;;5096938;28;20407;-70
2022/10/23 09:40:34;;;;;;;0.43;0.43;;;24.20;71.40;;;;;;5096889;28;20407;-73
2022/10/23 09:43:03;;;;;;;0.77;0.77;;;24.20;72.60;;;;;;5097102;28;20435;-72
2022/10/23 09:45:33;;;;;;;0.80;0.80;;;24.20;70.90;;;;;;5097012;28;20405;-70
2022/10/23 09:48:05;;;;;;;0.30;0.30;;;23.70;89.90;;;;;;5096836;28;20457;-71
2022/10/23 09:50:31;;;;;;;1.97;0.50;;;23.70;71.60;;;;;;5096608;28;20914;-70
2022/10/23 09:52:58;;;;;;;0.67;0.67;;;23.60;72.00;;;;;;5096793;28;20379;-72
2022/10/23 09:55:24;;;;;;;0.90;0.87;;;23.40;91.40;;;;;;5096806;28;20188;-71
2022/10/23 09:57:52;;;;;;;0.40;0.40;;;23.70;85.00;;;;;;5096613;28;20385;-72
2022/10/23 10:00:24;;;;;;;0.60;0.60;;;23.40;73.30;;;;;;5096560;28;20393;-70
2022/10/23 10:03:01;;;;;;;0.40;0.40;;;23.30;74.20;;;;;;5096563;28;20403;-70
2022/10/23 10:05:33;;;;;;;0.50;0.50;;;23.30;76.20;;;;;;5096457;28;20381;-71
2022/10/23 10:08:19;;;;;;;0.30;0.30;;;22.90;91.80;;;;;;5095057;28;20432;-71
2022/10/23 10:11:09;;;;;;;0.30;0.30;;;23.20;76.70;;;;;;5096269;28;20378;-72
2022/10/23 10:13:43;;;;;;;0.30;0.30;;;23.10;78.40;;;;;;5096414;28;20858;-70
2022/10/23 10:16:35;;;;;;;0.43;0.43;;;23.20;79.00;;;;;;5096446;28;20425;-69
2022/10/23 10:19:19;;;;;;;0.50;0.40;;;23.20;80.20;;;;;;5078282;28;20522;-72
2022/10/23 10:21:56;;;;;;;0.40;0.40;;;23.30;81.30;;;;;;5096247;28;20979;-71
2022/10/23 10:24:31;;;;;;;0.40;0.40;;;23.70;78.70;;;;;;5096199;28;20418;-69
2022/10/23 10:27:16;;;;;;;0.40;0.30;;;24.00;73.10;;;;;;5095848;28;20476;-72
2022/10/23 10:30:02;;;;;;;0.40;0.40;;;24.30;67.40;;;;;;5095989;28;20434;-69
2022/10/23 10:32:56;;;;;;;0.70;0.43;;;25.00;66.30;;;;;;5096049;28;20461;-71
2022/10/23 10:35:31;;;;;;;0.30;0.30;;;25.70;62.20;;;;;;5096008;28;20483;-71
2022/10/23 10:38:42;;;;;;;0.67;0.40;;;26.00;74.20;;;;;;5096178;28;20891;-72
2022/10/23 10:41:11;;;;;;;0.40;0.40;;;26.30;57.30;;;;;;5095830;28;20466;-72
2022/10/23 10:44:10;;;;;;;0.30;0.30;;;26.70;59.30;;;;;;5095833;28;20410;-69
2022/10/23 10:46:55;;;;;;;0.30;0.30;;;26.80;55.60;;;;;;5096015;28;20402;-72
2022/10/23 10:49:31;;;;;;;0.30;0.30;;;26.60;54.30;;;;;;5095328;28;20503;-70
2022/10/23 10:52:22;;;;;;;0.30;0.30;;;26.30;53.70;;;;;;5095690;28;20372;-69
2022/10/23 10:54:51;;;;;;;0.30;0.30;;;26.10;58.80;;;;;;5095463;28;20395;-71
2022/10/23 10:57:35;;;;;;;0.40;0.40;;;25.80;61.80;;;;;;5095389;28;20399;-68
2022/10/23 11:00:11;;;;;;;0.40;0.40;;;25.50;57.70;;;;;;5095047;28;20419;-69
2022/10/23 11:02:59;;;;;;;0.40;0.40;;;25.60;56.20;;;;;;5095339;28;20698;-70
2022/10/23 11:05:34;;;;;;;0.40;0.40;;;25.70;58.40;;;;;;5095527;28;20399;-70
2022/10/23 11:08:27;;;;;;;0.40;0.40;;;25.30;76.50;;;;;;5095267;28;20446;-72
2022/10/23 11:10:59;;;;;;;0.30;0.30;;;25.40;59.60;;;;;;5095088;28;20354;-71
2022/10/23 11:13:37;;;;;;;0.30;0.30;;;25.20;65.10;;;;;;5095176;28;20384;-71
2022/10/23 11:16:28;;;;;;;0.37;0.37;;;25.00;58.70;;;;;;5095308;28;20494;-72
2022/10/23 11:19:36;;;;;;;1.13;0.57;;;24.90;68.40;;;;;;5094565;28;20462;-71
2022/10/23 11:22:01;;;;;;;0.50;0.50;;;24.60;65.10;;;;;;4993500;28;20394;-69
2022/10/23 11:25:02;;;;;;;0.60;0.50;;;24.40;63.50;;;;;;4993507;28;20419;-69
2022/10/23 11:27:33;;;;;;;0.30;0.30;;;24.20;60.40;;;;;;5066855;28;20299;-70
2022/10/23 11:30:20;;;;;;;0.30;0.30;;;24.10;68.10;;;;;;5094735;28;20422;-70
2022/10/23 11:33:19;;;;;;;0.30;0.30;;;24.10;63.20;;;;;;5094866;28;20386;-72
2022/10/23 11:36:09;;;;;;;0.40;0.40;;;24.10;62.20;;;;;;5094883;28;20370;-72
2022/10/23 11:38:37;;;;;;;0.30;0.30;;;24.10;64.30;;;;;;5094638;28;20462;-70
2022/10/23 11:41:15;;;;;;;0.30;0.30;;;24.10;69.60;;;;;;5094555;28;20457;-72
2022/10/23 11:43:54;;;;;;;0.40;0.40;;;24.00;70.90;;;;;;5094780;28;20814;-71
2022/10/23 11:46:24;;;;;;;0.30;0.30;;;24.00;66.20;;;;;;5094543;28;20742;-70
2022/10/23 11:48:51;;;;;;;0.40;0.40;;;24.10;71.30;;;;;;5094142;28;20462;-72
2022/10/23 11:51:27;;;;;;;0.50;0.50;;;24.10;71.00;;;;;;5094755;28;20474;-71
2022/10/23 11:54:04;;;;;;;0.30;0.30;;;24.00;69.30;;;;;;5094488;28;20394;-70
2022/10/23 11:56:30;;;;;;;0.40;0.40;;;23.80;69.50;;;;;;5094472;28;20369;-69
2022/10/23 11:58:58;;;;;;;0.30;0.30;;;23.70;70.00;;;;;;5094060;28;20434;-73
2022/10/23 12:01:32;;;;;;;0.40;0.40;;;23.70;70.60;;;;;;5094445;28;20168;-72
2022/10/23 12:04:17;;;;;;;0.30;0.30;;;23.50;70.30;;;;;;5094333;28;20402;-72
2022/10/23 12:06:58;;;;;;;0.30;0.30;;;23.50;73.80;;;;;;5094427;28;20895;-71
2022/10/23 12:09:24;;;;;;;0.40;0.40;;;23.30;76.50;;;;;;5094294;28;20450;-71
2022/10/23 12:12:08;;;;;;;0.40;0.40;;;23.30;75.40;;;;;;5094078;28;20381;-71
2022/10/23 12:14:34;;;;;;;0.30;0.30;;;23.10;79.70;;;;;;5094264;28;20519;-68
2022/10/23 12:17:00;;;;;;;0.40;0.40;;;22.90;75.10;;;;;;5094196;28;20391;-72
2022/10/23 12:19:29;;;;;;;0.40;0.40;;;22.50;92.00;;;;;;5093879;28;20196;-69
2022/10/23 12:22:00;;;;;;;0.40;0.40;;;22.70;74.90;;;;;;5092618;28;20968;-71
2022/10/23 12:24:38;;;;;;;0.30;0.30;;;22.60;76.50;;;;;;5094098;28;20513;-71
2022/10/23 12:27:53;;;;;;;0.30;0.30;;;22.40;78.50;;;;;;5093901;28;20455;-70
2022/10/23 12:30:21;;;;;;;0.40;0.40;;;22.30;78.80;;;;;;5064262;28;20417;-70
2022/10/23 12:32:47;;;;;;;0.70;0.70;;;22.10;84.10;;;;;;5093810;28;20368;-69
2022/10/23 12:35:49;;;;;;;0.40;0.40;;;21.80;83.40;;;;;;5093828;28;20437;-68
2022/10/23 12:38:25;;;;;;;0.40;0.40;;;21.70;84.30;;;;;;5093772;28;20293;-69
2022/10/23 12:41:13;;;;;;;3.80;0.60;;;21.40;85.80;;;;;;5093621;28;20491;-70
2022/10/23 12:43:41;;;;;;;0.40;0.40;;;21.20;86.20;;;;;;5093932;28;20753;-69
2022/10/23 12:46:31;;;;;;;0.30;0.30;;;21.10;87.50;;;;;;5093737;28;20876;-68
2022/10/23 12:48:59;;;;;;;0.40;0.40;;;20.80;88.90;;;;;;5093258;28;20462;-70
2022/10/23 12:51:30;;;;;;;0.87;0.57;;;20.70;87.00;;;;;;5093567;28;20396;-71
2022/10/23 12:53:56;;;;;;;0.40;0.40;;;20.60;86.10;;;;;;5093621;28;20761;-70
2022/10/23 12:56:24;;;;;;;0.40;0.40;;;20.50;88.30;;;;;;5093821;28;20395;-72
2022/10/23 12:58:53;;;;;;;0.30;0.30;;;20.40;87.60;;;;;;5093468;28;20241;-71
2022/10/23 13:01:27;;;;;;;0.30;0.30;;;20.40;88.70;;;;;;5093453;28;20403;-68
2022/10/23 13:04:27;;;;;;;0.30;0.30;;;20.50;90.10;;;;;;5093493;28;20484;-70
2022/10/23 13:06:57;;;;;;;0.93;0.50;;;20.50;90.30;;;;;;5093457;28;20491;-70
2022/10/23 13:09:30;;;;;;;0.50;0.40;;;20.50;90.90;;;;;;5093236;28;20512;-70